createdAt,value
2022-09-05T00:00:53.449Z,20.31
2022-09-05T00:06:01.730Z,20.28
2022-09-05T00:11:42.116Z,20.28
2022-09-05T00:16:30.264Z,20.24
2022-09-05T00:24:21.367Z,20.18
2022-09-05T00:26:50.276Z,20.15
2022-09-05T00:31:55.438Z,20.12
2022-09-05T00:36:49.215Z,20.07
2022-09-05T00:41:40.362Z,20.03
2022-09-05T00:46:35.784Z,20.01
2022-09-05T00:51:34.807Z,19.96
2022-09-05T00:56:42.714Z,19.91
2022-09-05T01:01:41.765Z,19.88
2022-09-05T01:06:37.042Z,19.84
2022-09-05T01:11:38.116Z,19.82
2022-09-05T01:16:32.119Z,19.75
2022-09-05T01:21:40.787Z,19.70
2022-09-05T01:26:50.921Z,19.65
2022-09-05T01:31:48.249Z,19.60
2022-09-05T01:36:58.499Z,19.55
2022-09-05T01:41:52.754Z,19.52
2022-09-05T01:46:47.477Z,19.49
2022-09-05T01:51:43.380Z,19.43
2022-09-05T01:56:38.818Z,19.39
2022-09-05T02:01:33.389Z,19.32
2022-09-05T02:06:37.137Z,19.28
2022-09-05T02:11:41.592Z,19.23
2022-09-05T02:16:38.458Z,19.19
2022-09-05T02:21:56.140Z,19.14
2022-09-05T02:26:57.423Z,19.08
2022-09-05T02:31:51.245Z,19.02
2022-09-05T02:36:47.462Z,18.97
2022-09-05T02:45:07.954Z,18.95
2022-09-05T02:46:58.719Z,18.90
2022-09-05T02:57:26.343Z,18.88
2022-09-05T02:57:36.377Z,18.86
2022-09-05T03:02:32.553Z,18.82
2022-09-05T03:07:36.846Z,18.79
2022-09-05T03:12:41.702Z,18.73
2022-09-05T03:17:49.681Z,18.70
2022-09-05T03:22:55.043Z,18.64
2022-09-05T03:28:04.297Z,18.57
2022-09-05T03:33:09.844Z,18.52
2022-09-05T03:38:16.092Z,18.47
2022-09-05T03:43:20.296Z,18.43
2022-09-05T03:48:28.838Z,18.40
2022-09-05T03:57:15.710Z,18.36
2022-09-05T03:59:10.663Z,18.32
2022-09-05T04:08:15.900Z,18.31
2022-09-05T04:09:37.269Z,18.27
2022-09-05T04:14:36.154Z,18.24
2022-09-05T04:19:33.219Z,18.19
2022-09-05T04:24:28.392Z,18.15
2022-09-05T04:29:21.258Z,18.13
2022-09-05T04:34:30.689Z,18.08
2022-09-05T04:39:30.683Z,18.05
2022-09-05T04:44:26.789Z,18.02
2022-09-05T04:49:19.210Z,18.01
2022-09-05T04:54:20.661Z,17.98
2022-09-05T05:01:40.702Z,17.93
2022-09-05T05:06:10.665Z,17.92
2022-09-05T05:09:44.880Z,17.89
2022-09-05T05:18:06.171Z,17.89
2022-09-05T05:19:57.844Z,17.87
2022-09-05T05:25:06.807Z,17.85
2022-09-05T05:30:27.126Z,17.83
2022-09-05T05:35:19.224Z,17.81
2022-09-05T05:40:11.867Z,17.82
2022-09-05T05:45:02.902Z,17.85
2022-09-05T05:50:02.735Z,17.87
2022-09-05T05:55:07.355Z,17.91
2022-09-05T06:00:14.812Z,17.92
2022-09-05T06:05:29.629Z,18.01
2022-09-05T06:15:06.531Z,18.08
2022-09-05T06:16:09.016Z,18.17
2022-09-05T06:22:06.006Z,18.28
2022-09-05T06:26:41.643Z,18.35
2022-09-05T06:31:45.321Z,18.45
2022-09-05T06:36:44.016Z,18.53
2022-09-05T06:41:40.694Z,18.64
2022-09-05T06:46:55.084Z,18.73
2022-09-05T06:52:28.570Z,18.82
2022-09-05T06:57:23.362Z,18.91
2022-09-05T07:02:23.789Z,19.03
2022-09-05T07:07:42.450Z,19.12
2022-09-05T07:12:42.139Z,19.21
2022-09-05T07:18:06.238Z,19.32
2022-09-05T07:23:25.780Z,19.45
2022-09-05T07:28:28.861Z,19.66
2022-09-05T07:33:24.713Z,19.93
2022-09-05T07:38:20.768Z,20.16
2022-09-05T07:43:18.231Z,20.35
2022-09-05T07:48:13.270Z,20.53
2022-09-05T07:56:52.410Z,20.67
2022-09-05T07:58:21.871Z,20.80
2022-09-05T08:03:13.583Z,20.89
2022-09-05T08:08:05.829Z,20.95
2022-09-05T08:13:23.661Z,20.97
2022-09-05T08:18:15.982Z,21.01
2022-09-05T08:23:10.077Z,21.07
2022-09-05T08:28:06.407Z,21.24
2022-09-05T08:33:10.180Z,21.51
2022-09-05T08:38:03.461Z,21.75
2022-09-05T08:46:36.772Z,21.99
2022-09-05T08:48:14.394Z,22.33
2022-09-05T08:53:28.161Z,22.56
2022-09-05T08:58:36.074Z,22.75
2022-09-05T09:03:28.819Z,22.95
2022-09-05T09:08:27.010Z,23.21
2022-09-05T09:13:26.783Z,23.62
2022-09-05T09:18:17.823Z,24.01
2022-09-05T09:23:09.023Z,24.41
2022-09-05T09:28:50.651Z,24.93
2022-09-05T09:33:46.213Z,25.47
2022-09-05T09:38:41.334Z,25.97
2022-09-05T09:43:34.823Z,26.31
2022-09-05T09:48:48.334Z,26.73
2022-09-05T09:53:47.733Z,27.23
2022-09-05T09:58:45.808Z,27.38
2022-09-05T10:10:11.525Z,27.55
2022-09-05T10:10:54.005Z,27.81
2022-09-05T10:14:49.740Z,27.91
2022-09-05T10:20:10.028Z,27.79
2022-09-05T10:25:18.912Z,27.70
2022-09-05T10:30:13.909Z,27.79
2022-09-05T10:35:21.112Z,27.94
2022-09-05T10:40:16.552Z,28.05
2022-09-05T10:45:08.183Z,28.17
2022-09-05T10:50:04.998Z,28.36
2022-09-05T10:55:13.940Z,28.44
2022-09-05T11:02:23.156Z,28.48
2022-09-05T11:05:27.488Z,28.55
2022-09-05T11:10:20.848Z,28.49
2022-09-05T11:15:25.224Z,28.49
2022-09-05T11:20:35.378Z,28.54
2022-09-05T11:25:40.494Z,28.62
2022-09-05T11:30:39.857Z,28.66
2022-09-05T11:40:02.213Z,28.91
2022-09-05T11:41:08.427Z,29.26
2022-09-05T11:46:22.379Z,29.61
2022-09-05T11:51:33.847Z,29.87
2022-09-05T11:56:44.069Z,30.08
2022-09-05T12:01:44.255Z,30.26
2022-09-05T12:06:49.655Z,30.42
2022-09-05T12:11:47.124Z,30.52
2022-09-05T12:16:52.283Z,30.60
2022-09-05T12:21:50.418Z,30.58
2022-09-05T12:27:41.391Z,30.56
2022-09-05T12:33:34.009Z,30.66
2022-09-05T12:40:16.646Z,30.85
2022-09-05T12:42:28.182Z,31.00
2022-09-05T12:47:26.427Z,31.08
2022-09-05T12:52:21.840Z,31.16
2022-09-05T13:01:09.551Z,31.18
2022-09-05T13:03:15.334Z,31.12
2022-09-05T13:07:44.949Z,30.93
2022-09-05T13:14:49.488Z,30.77
2022-09-05T13:17:53.283Z,30.60
2022-09-05T13:22:50.966Z,30.41
2022-09-05T13:27:47.429Z,30.24
2022-09-05T13:38:06.156Z,30.12
2022-09-05T13:38:29.073Z,30.08
2022-09-05T13:43:09.725Z,30.13
2022-09-05T13:48:18.868Z,30.17
2022-09-05T13:53:17.975Z,30.22
2022-09-05T13:58:10.753Z,30.19
2022-09-05T14:03:39.027Z,30.20
2022-09-05T14:08:40.643Z,30.21
2022-09-05T14:13:35.587Z,30.16
2022-09-05T14:18:27.473Z,30.16
2022-09-05T14:23:18.410Z,30.16
2022-09-05T14:28:16.165Z,30.19
2022-09-05T14:37:48.387Z,30.18
2022-09-05T14:38:42.148Z,30.35
2022-09-05T14:43:56.620Z,30.55
2022-09-05T14:48:57.090Z,30.73
2022-09-05T14:54:00.705Z,30.81
2022-09-05T15:02:48.384Z,30.83
2022-09-05T15:04:42.391Z,30.72
2022-09-05T15:12:14.138Z,30.68
2022-09-05T15:14:56.305Z,30.74
2022-09-05T15:20:06.737Z,30.78
2022-09-05T15:25:12.147Z,30.53
2022-09-05T15:30:11.940Z,30.48
2022-09-05T15:35:03.613Z,30.51
2022-09-05T15:40:04.185Z,30.44
2022-09-05T15:45:09.851Z,30.29
2022-09-05T15:50:05.206Z,30.12
2022-09-05T15:54:57.917Z,29.92
2022-09-05T15:59:50.500Z,29.74
2022-09-05T16:10:27.037Z,29.64
2022-09-05T16:10:43.464Z,29.52
2022-09-05T16:17:26.431Z,29.38
2022-09-05T16:23:30.905Z,29.30
2022-09-05T16:25:46.668Z,29.20
2022-09-05T16:30:38.226Z,29.08
2022-09-05T16:35:29.346Z,29.04
2022-09-05T16:40:22.897Z,28.92
2022-09-05T16:45:20.636Z,28.80
2022-09-05T16:50:16.644Z,28.68
2022-09-05T16:55:12.261Z,28.54
2022-09-05T17:00:03.770Z,28.46
2022-09-05T17:05:06.305Z,28.37
2022-09-05T17:09:59.205Z,28.27
2022-09-05T17:14:53.230Z,28.19
2022-09-05T17:20:05.925Z,28.12
2022-09-05T17:29:23.728Z,28.01
2022-09-05T17:35:42.806Z,27.83
2022-09-05T17:40:51.371Z,27.78
2022-09-05T17:45:46.952Z,27.78
2022-09-05T17:50:49.595Z,27.76
2022-09-05T17:55:55.373Z,27.68
2022-09-05T18:01:05.534Z,27.53
2022-09-05T18:06:05.644Z,27.26
2022-09-05T18:11:02.310Z,26.84
2022-09-05T18:16:12.406Z,26.10
2022-09-05T18:21:21.020Z,25.12
2022-09-05T18:26:20.964Z,24.07
2022-09-05T18:31:26.140Z,23.38
2022-09-05T18:36:48.751Z,22.95
2022-09-05T18:41:42.818Z,22.78
2022-09-05T18:46:34.919Z,22.62
2022-09-05T18:51:26.372Z,22.53
2022-09-05T18:56:30.321Z,22.40
2022-09-05T19:01:28.461Z,22.20
2022-09-05T19:06:35.589Z,22.01
2022-09-05T19:11:32.493Z,21.89
2022-09-05T19:16:42.157Z,21.84
2022-09-05T19:21:33.812Z,21.81
2022-09-05T19:26:23.918Z,21.83
2022-09-05T19:36:57.052Z,21.93
2022-09-05T19:37:11.974Z,21.97
2022-09-05T19:47:26.084Z,21.98
2022-09-05T19:47:37.947Z,22.00
2022-09-05T19:52:16.838Z,21.95
2022-09-05T19:57:08.001Z,21.94
2022-09-05T20:02:01.703Z,21.82
2022-09-05T20:06:53.368Z,21.71
2022-09-05T20:11:45.702Z,21.63
2022-09-05T20:16:36.882Z,21.54
2022-09-05T20:21:30.990Z,21.54
2022-09-05T20:26:23.563Z,21.57
2022-09-05T20:31:17.087Z,21.62
2022-09-05T20:43:08.621Z,21.62
2022-09-05T20:43:19.530Z,21.68
2022-09-05T20:50:11.622Z,21.58
2022-09-05T20:54:21.742Z,21.46
2022-09-05T20:57:15.105Z,21.24
2022-09-05T21:02:06.589Z,21.08
2022-09-05T21:07:10.764Z,20.91
2022-09-05T21:12:06.313Z,20.76
2022-09-05T21:17:04.854Z,20.71
2022-09-05T21:22:06.018Z,20.43
2022-09-05T21:26:55.488Z,20.44
2022-09-05T21:31:49.089Z,20.47
2022-09-05T21:36:47.100Z,20.50
2022-09-05T21:41:40.010Z,20.32
2022-09-05T21:47:43.876Z,20.29
2022-09-05T21:51:48.197Z,20.27
2022-09-05T21:59:26.028Z,20.11
2022-09-05T22:01:53.372Z,20.01
2022-09-05T22:06:48.695Z,19.99
2022-09-05T22:11:41.275Z,19.99
2022-09-05T22:16:31.855Z,19.82
2022-09-05T22:21:33.222Z,19.77
2022-09-05T22:26:25.006Z,19.74
2022-09-05T22:31:17.401Z,19.77
2022-09-05T22:36:07.005Z,19.82
2022-09-05T22:40:58.678Z,19.79
2022-09-05T22:45:48.980Z,19.58
2022-09-05T22:50:41.614Z,19.48
2022-09-05T22:55:33.586Z,19.39
2022-09-05T23:00:23.134Z,19.40
2022-09-05T23:05:13.125Z,19.40
2022-09-05T23:10:06.624Z,19.43
2022-09-05T23:14:56.311Z,19.45
2022-09-05T23:19:45.711Z,19.45
2022-09-05T23:24:35.423Z,19.48
2022-09-05T23:29:27.564Z,19.48
2022-09-05T23:34:17.029Z,19.57
2022-09-05T23:39:06.516Z,19.61
2022-09-05T23:43:56.007Z,19.61
2022-09-05T23:48:48.005Z,19.60
2022-09-05T23:53:37.978Z,19.56
2022-09-05T23:58:27.569Z,19.58
